Latest Weather Observations for Scotts Peak

IDT60801

Issued at 3:35 am EST Saturday 20 September 2014 (issued every 30 minutes, with the page automatically refreshed every 10 minutes)

About weather observations | Map of weather stations | Latest weather observations for TAS | Other Formats
Station Details ID: 097083 Name: SCOTTS PEAK DAM Lat: -43.04 Lon: 146.27 Height: 408.0 m
Data from the previous 72 hours. | See also: Recent months at Scotts Peak
Date/Time
EST
Temp
°C
App
Temp
°C
Dew
Point
Rel
Hum
%
Delta-T
°C
Wind Press
QNH
hPa
Press
MSL
hPa
Rain
since 9 am
mm
Dir
 
Spd
km/h
Gust
km/h
Spd
kts
Gust
kts
20/03:30am 6.5 1.4 6.1 97 0.2 SW 22 35 12 19 - - 14.4
20/03:00am 6.6 2.1 6.2 97 0.2 SSW 19 35 10 19 - - 14.0
20/02:30am 6.9 4.0 6.6 98 0.1 WSW 11 22 6 12 - - 14.0
20/02:00am 6.9 4.4 6.6 98 0.1 W 9 17 5 9 - - 13.8
20/01:30am 6.9 1.9 6.6 98 0.1 WNW 22 32 12 17 - - 13.6
20/01:22am 6.9 0.8 6.6 98 0.1 W 28 50 15 27 - - 13.2
20/01:00am 7.0 2.0 6.6 97 0.2 NW 22 43 12 23 - - 13.2
20/12:30am 7.1 3.1 6.7 97 0.2 W 17 28 9 15 - - 12.6
20/12:00am 7.1 2.2 6.7 97 0.2 W 22 35 12 19 - - 12.2
 
Date/Time
EST
Temp
°C
App
Temp
°C
Dew
Point
Rel
Hum
%
Delta-T
°C
Wind Press
QNH
hPa
Press
MSL
hPa
Rain
since 9 am
mm
Dir
 
Spd
km/h
Gust
km/h
Spd
kts
Gust
kts
19/11:30pm 7.1 2.1 6.5 96 0.3 NW 22 28 12 15 - - 11.6
19/11:09pm 7.3 1.2 6.7 96 0.3 WSW 28 54 15 29 - - 11.6
19/11:00pm 7.3 2.0 6.7 96 0.3 WSW 24 43 13 23 - - 11.6
19/10:30pm 7.2 3.2 6.5 95 0.3 WSW 17 26 9 14 - - 10.6
19/10:00pm 7.3 1.2 6.4 94 0.4 W 28 44 15 24 - - 10.4
19/09:34pm 7.2 0.1 6.6 96 0.3 W 33 52 18 28 - - 10.4
19/09:30pm 7.3 -0.1 6.6 95 0.3 WSW 35 52 19 28 - - 10.4
19/09:04pm 7.5 1.1 6.9 96 0.3 WSW 30 50 16 27 - - 10.2
19/09:00pm 7.5 1.5 6.9 96 0.3 WSW 28 44 15 24 - - 9.6
19/08:46pm 7.4 0.0 6.8 96 0.3 WSW 35 54 19 29 - - 8.6
19/08:43pm 7.4 -0.7 6.8 96 0.3 SW 39 44 21 24 - - 8.6
19/08:37pm 7.4 1.4 7.0 97 0.2 W 28 50 15 27 - - 8.2
19/08:30pm 7.5 1.5 7.1 97 0.2 W 28 41 15 22 - - 8.2
19/08:10pm 7.6 0.3 7.0 96 0.3 W 35 43 19 23 - - 7.2
19/08:00pm 7.6 4.1 7.0 96 0.3 SW 15 22 8 12 - - 7.2
19/07:58pm 7.6 1.6 7.2 97 0.2 SW 28 46 15 25 - - 7.0
19/07:30pm 7.5 2.2 6.9 96 0.3 WSW 24 46 13 25 - - 6.4
19/07:16pm 7.5 1.5 6.9 96 0.3 W 28 54 15 29 - - 5.0
19/07:00pm 7.5 2.6 7.1 97 0.2 W 22 46 12 25 - - 5.0
19/06:30pm 7.4 0.9 6.7 95 0.3 W 30 59 16 32 - - 3.6
19/06:07pm 7.5 0.5 6.9 96 0.3 WNW 33 52 18 28 - - 2.8
19/06:00pm 7.5 0.5 6.9 96 0.3 WNW 33 46 18 25 - - 2.6
19/05:40pm 7.5 1.5 6.9 96 0.3 W 28 50 15 27 - - 2.2
19/05:30pm 7.4 2.1 6.8 96 0.3 W 24 33 13 18 - - 1.6
19/05:00pm 7.7 1.5 6.2 90 0.7 WNW 28 39 15 21 - - 1.0
19/04:30pm 7.5 0.3 6.1 91 0.6 WNW 33 54 18 29 - - 1.0
19/04:26pm 7.5 0.0 6.1 91 0.6 WNW 35 54 19 29 - - 1.0
19/04:23pm 7.5 -1.1 6.3 92 0.6 WNW 41 54 22 29 - - 1.0
19/04:00pm 7.6 1.8 6.2 91 0.7 W 26 39 14 21 - - 0.8
19/03:30pm 7.7 1.1 6.2 90 0.7 W 30 52 16 28 - - 0.8
19/03:00pm 8.3 1.6 5.6 83 1.2 W 30 50 16 27 - - 0.4
19/02:30pm 9.8 2.8 4.2 68 2.5 W 30 48 16 26 - - 0.2
19/02:06pm 10.7 3.6 5.7 71 2.4 W 32 50 17 27 - - 0.2
19/02:00pm 10.3 3.7 5.9 74 2.1 W 30 46 16 25 - - 0.2
19/01:53pm 9.9 3.4 4.7 70 2.4 W 28 46 15 25 - - 0.2
19/01:30pm 10.2 3.5 5.8 74 2.1 WSW 30 44 16 24 - - 0.2
19/01:25pm 9.4 1.4 5.8 78 1.7 WSW 37 44 20 24 - - 0.2
19/01:00pm 9.4 2.2 4.8 73 2.1 WNW 32 46 17 25 - - 0.2
19/12:30pm 9.0 1.7 4.6 74 2.0 W 32 50 17 27 - - 0.2
19/12:25pm 9.1 2.6 4.9 75 1.9 W 28 46 15 25 - - 0.2
19/12:21pm 9.5 3.1 5.1 74 2.0 W 28 41 15 22 - - 0.2
19/12:12pm 9.2 4.8 5.0 75 1.9 WSW 17 22 9 12 - - 0.2
19/12:00pm 8.2 0.0 5.0 80 1.5 W 37 69 20 37 - - 0.2
19/11:59am 8.4 0.2 4.8 78 1.6 W 37 69 20 37 - - 0.2
19/11:33am 8.4 2.0 5.0 79 1.6 W 28 46 15 25 - - 0.2
19/11:30am 8.7 3.1 5.3 79 1.6 W 24 46 13 25 - - 0.2
19/11:00am 8.5 2.0 6.3 86 1.0 W 30 57 16 31 - - 0.2
19/10:55am 7.9 1.5 5.4 84 1.1 WNW 28 54 15 29 - - 0.2
19/10:30am 8.0 1.3 5.5 84 1.1 W 30 43 16 23 - - 0.2
19/10:01am 7.9 0.1 5.0 82 1.3 W 35 54 19 29 - - 0.2
19/10:00am 8.0 0.0 5.5 84 1.1 WNW 37 54 20 29 - - 0.2
19/09:30am 7.0 -0.2 5.8 92 0.6 W 33 52 18 28 - - 0.2
19/09:21am 6.7 -0.5 6.0 95 0.3 W 33 52 18 28 - - 0.2
19/09:00am 6.6 0.0 5.9 95 0.3 W 30 41 16 22 - - 23.6
19/08:40am 6.5 0.2 5.8 95 0.3 W 28 57 15 31 - - 23.4
19/08:30am 6.5 -0.1 5.9 96 0.3 W 30 43 16 23 - - 23.4
19/08:10am 6.5 0.3 6.1 97 0.2 W 28 48 15 26 - - 23.4
19/08:00am 6.4 0.9 6.0 97 0.2 WNW 24 37 13 20 - - 23.0
19/07:30am 6.5 0.7 6.1 97 0.2 WNW 26 43 14 23 - - 22.6
19/07:00am 6.5 -0.7 6.1 97 0.2 W 33 59 18 32 - - 21.6
19/06:30am 6.4 0.1 5.8 96 0.3 W 28 50 15 27 - - 21.4
19/06:00am 6.4 -0.6 6.0 97 0.2 W 32 54 17 29 - - 20.6
19/05:30am 6.5 -0.7 6.1 97 0.2 WSW 33 67 18 36 - - 19.4
19/05:01am 6.6 0.0 6.2 97 0.2 W 30 54 16 29 - - 18.4
19/05:00am 6.6 0.4 6.2 97 0.2 W 28 44 15 24 - - 18.4
19/04:50am 6.5 -0.7 6.1 97 0.2 W 33 52 18 28 - - 18.2
19/04:48am 6.6 -1.3 6.0 96 0.3 WSW 37 50 20 27 - - 18.2
19/04:44am 6.6 0.0 6.0 96 0.3 W 30 50 16 27 - - 17.8
19/04:40am 6.7 -2.0 6.0 95 0.3 SSW 41 65 22 35 - - 17.8
19/04:30am 6.9 -2.2 5.8 93 0.5 W 43 65 23 35 - - 17.6
19/04:00am 7.0 -1.0 5.9 93 0.5 W 37 59 20 32 - - 17.0
19/03:30am 6.8 -1.5 5.9 94 0.4 W 39 65 21 35 - - 16.0
19/03:25am 6.9 -1.4 6.0 94 0.4 W 39 65 21 35 - - 15.6
19/03:24am 6.9 -1.0 6.0 94 0.4 W 37 54 20 29 - - 15.6
19/03:17am 7.0 -0.5 6.1 94 0.4 WSW 35 57 19 31 - - 15.4
19/03:15am 6.9 -0.1 5.8 93 0.5 WSW 32 46 17 25 - - 15.4
19/03:00am 6.7 -2.1 5.5 92 0.5 WNW 41 72 22 39 - - 15.0
19/02:30am 6.7 -2.5 5.5 92 0.5 W 43 74 23 40 - - 13.6
19/02:00am 6.8 -2.5 5.7 93 0.5 W 44 70 24 38 - - 13.2
19/01:30am 6.8 -1.9 5.9 94 0.4 W 41 59 22 32 - - 11.6
19/01:00am 6.7 -0.9 5.8 94 0.4 W 35 59 19 32 - - 10.2
19/12:30am 6.7 -2.5 5.5 92 0.5 W 43 70 23 38 - - 8.6
19/12:00am 6.6 -3.6 5.1 90 0.7 W 48 69 26 37 - - 6.6
 
Date/Time
EST
Temp
°C
App
Temp
°C
Dew
Point
Rel
Hum
%
Delta-T
°C
Wind Press
QNH
hPa
Press
MSL
hPa
Rain
since 9 am
mm
Dir
 
Spd
km/h
Gust
km/h
Spd
kts
Gust
kts
18/11:30pm 6.4 -3.4 5.2 92 0.5 W 46 69 25 37 - - 5.8
18/11:00pm 6.3 -3.2 4.8 90 0.7 W 44 63 24 34 - - 5.4
18/10:42pm 6.3 -1.8 5.3 93 0.5 W 37 57 20 31 - - 4.8
18/10:30pm 6.2 -1.2 5.2 93 0.4 WNW 33 46 18 25 - - 3.8
18/10:00pm 6.5 -1.7 5.0 90 0.7 WNW 37 50 20 27 - - 3.0
18/09:30pm 6.7 -0.3 3.9 82 1.2 WNW 30 41 16 22 - - 2.4
18/09:04pm 6.8 -0.3 3.8 81 1.3 WNW 30 50 16 27 - - 2.4
18/09:00pm 6.6 -0.1 3.9 83 1.2 W 28 44 15 24 - - 2.4
18/08:30pm 6.6 -1.3 4.1 84 1.1 W 35 56 19 30 - - 2.4
18/08:17pm 6.5 -1.9 3.8 83 1.2 W 37 56 20 30 - - 2.4
18/08:00pm 6.4 -1.1 4.4 87 0.9 W 33 48 18 26 - - 2.4
18/07:44pm 6.2 -2.1 4.4 88 0.8 W 37 57 20 31 - - 2.4
18/07:30pm 5.9 -1.4 4.7 92 0.5 WNW 32 52 17 28 - - 2.4
18/07:00pm 6.2 1.1 4.0 86 1.0 W 20 32 11 17 - - 2.2
18/06:30pm 6.7 2.0 3.1 78 1.5 W 17 32 9 17 - - 2.2
18/06:00pm 6.8 1.1 3.1 77 1.6 WNW 22 33 12 18 - - 2.2
18/05:30pm 6.9 0.4 2.8 75 1.8 W 26 46 14 25 - - 2.2
18/05:00pm 7.2 -0.7 2.3 71 2.1 W 33 56 18 30 - - 2.2
18/04:30pm 7.9 -3.3 2.0 66 2.5 W 50 74 27 40 - - 2.2
18/04:00pm 8.8 -2.2 3.0 67 2.5 W 50 69 27 37 - - 2.2
18/03:30pm 9.0 -1.9 3.8 70 2.3 W 50 70 27 38 - - 2.2
18/03:00pm 7.7 0.4 4.5 80 1.4 W 32 54 17 29 - - 2.2
18/02:30pm 7.9 -1.7 4.3 78 1.6 W 44 74 24 40 - - 2.2
18/02:01pm 7.5 -1.3 5.6 88 0.9 W 41 59 22 32 - - 2.0
18/02:00pm 7.3 -2.0 5.1 86 1.0 W 43 59 23 32 - - 2.0
18/01:31pm 6.1 -3.3 4.6 90 0.7 W 43 61 23 33 - - 1.8
18/01:30pm 6.4 -2.8 5.4 93 0.5 W 43 59 23 32 - - 1.8
18/01:14pm 5.8 -4.2 4.4 91 0.6 WNW 46 65 25 35 - - 1.0
18/01:00pm 6.0 -4.2 3.2 82 1.2 WNW 46 63 25 34 - - 0.8
18/12:30pm 6.2 -3.5 3.9 85 1.0 WNW 44 63 24 34 - - 0.8
18/12:08pm 6.3 -2.8 4.1 86 1.0 WNW 41 61 22 33 - - 0.8
18/12:00pm 6.6 -1.7 4.1 84 1.1 WNW 37 54 20 29 - - 0.8
18/11:45am 7.0 -1.2 4.7 85 1.0 NW 37 44 20 24 - - 0.8
18/11:30am 5.5 -1.2 3.8 89 0.7 W 28 43 15 23 - - 0.8
18/11:00am 6.2 -0.5 3.9 85 1.0 WNW 28 41 15 22 - - 0.6
18/10:30am 6.5 -0.9 4.8 89 0.8 WNW 33 46 18 25 - - 0.6
18/10:00am 4.9 -2.7 2.9 87 0.8 W 32 54 17 29 - - 0.6
18/09:58am 5.3 -1.5 3.0 85 1.0 W 28 46 15 25 - - 0.6
18/09:30am 6.6 0.1 4.6 87 0.9 W 28 39 15 21 - - 0.0
18/09:08am 5.0 -2.1 3.3 89 0.7 WSW 30 44 16 24 - - 0.0
18/09:00am 5.6 0.5 4.2 91 0.6 W 20 26 11 14 - - 26.2
18/08:30am 4.7 -1.3 3.4 91 0.6 SW 24 39 13 21 - - 26.2
18/08:00am 3.9 -0.8 3.0 94 0.4 W 17 24 9 13 - - 26.2
18/07:30am 3.7 -1.6 3.0 95 0.3 WSW 20 33 11 18 - - 25.4
18/07:00am 3.9 -2.6 2.9 93 0.4 WSW 26 39 14 21 - - 24.2
18/06:30am 4.3 -1.7 3.3 93 0.4 WSW 24 46 13 25 - - 24.2
18/06:26am 4.4 -2.4 3.2 92 0.5 WSW 28 46 15 25 - - 24.2
18/06:00am 4.1 -2.7 2.9 92 0.5 W 28 43 15 23 - - 24.2
18/05:30am 4.1 -1.2 3.2 94 0.4 W 20 28 11 15 - - 24.0
18/05:00am 4.0 -2.0 3.1 94 0.4 WSW 24 39 13 21 - - 22.8
18/04:30am 4.0 -3.2 3.0 93 0.4 W 30 44 16 24 - - 22.2
18/04:00am 3.8 -2.3 2.5 91 0.5 WSW 24 37 13 20 - - 22.0
18/03:30am 4.0 -1.1 2.8 92 0.5 W 19 30 10 16 - - 21.8
18/03:00am 4.0 0.0 2.8 92 0.5 W 13 19 7 10 - - 21.4
18/02:30am 4.1 0.1 2.6 90 0.6 WSW 13 28 7 15 - - 21.0
18/02:00am 4.0 -0.8 2.7 91 0.5 WSW 17 30 9 16 - - 21.0
18/01:30am 4.4 -0.9 2.9 90 0.6 W 20 33 11 18 - - 20.6
18/01:00am 4.1 0.5 2.8 91 0.5 SW 11 19 6 10 - - 20.6
18/12:30am 4.2 -1.0 3.3 94 0.4 S 20 35 11 19 - - 20.2
18/12:09am 4.5 -2.3 3.2 91 0.5 SW 28 43 15 23 - - 19.6
18/12:00am 4.4 -0.2 3.5 94 0.4 W 17 24 9 13 - - 19.6
 
Date/Time
EST
Temp
°C
App
Temp
°C
Dew
Point
Rel
Hum
%
Delta-T
°C
Wind Press
QNH
hPa
Press
MSL
hPa
Rain
since 9 am
mm
Dir
 
Spd
km/h
Gust
km/h
Spd
kts
Gust
kts
17/11:30pm 4.2 -0.8 3.5 95 0.3 SW 19 28 10 15 - - 19.4
17/11:00pm 3.9 -2.6 2.9 93 0.4 SW 26 43 14 23 - - 19.0
17/10:40pm 3.9 -3.9 2.9 93 0.4 SW 33 52 18 28 - - 18.0
17/10:36pm 4.1 -4.4 3.1 93 0.4 SW 37 52 20 28 - - 17.8
17/10:30pm 3.8 -3.0 3.1 95 0.3 W 28 39 15 21 - - 17.6
17/10:00pm 3.9 0.0 3.5 97 0.2 SW 13 33 7 18 - - 15.4
17/09:30pm 2.7 -2.7 2.3 97 0.2 NW 20 24 11 13 - - 14.6
17/09:00pm 1.9 -4.8 1.3 96 0.2 WNW 26 44 14 24 - - 13.4
17/08:30pm 1.9 -4.1 1.0 94 0.3 WNW 22 35 12 19 - - 12.0
17/08:01pm 2.5 -5.6 1.0 90 0.6 W 33 57 18 31 - - 11.0
17/08:00pm 2.6 -5.3 1.0 89 0.6 W 32 48 17 26 - - 10.8
17/07:58pm 2.6 -5.0 0.8 88 0.7 W 30 48 16 26 - - 10.6
17/07:30pm 4.0 -1.5 0.5 78 1.4 W 19 32 10 17 - - 9.8
17/07:00pm 3.6 -2.0 1.3 85 0.9 WNW 20 30 11 16 - - 9.8
17/06:30pm 3.5 -1.7 0.2 79 1.3 SSW 17 20 9 11 - - 9.8
17/06:00pm 3.3 -4.6 0.9 84 0.9 WNW 32 39 17 21 - - 9.8
17/05:30pm 4.0 -3.5 0.9 80 1.2 W 30 52 16 28 - - 9.6
17/05:11pm 4.1 -3.8 0.8 79 1.3 W 32 59 17 32 - - 9.6
17/05:00pm 4.1 -3.8 0.8 79 1.3 WNW 32 43 17 23 - - 9.6
17/04:30pm 4.3 -3.6 0.8 78 1.4 W 32 52 17 28 - - 9.6
17/04:22pm 4.4 -3.8 0.6 76 1.5 W 33 52 18 28 - - 9.6
17/04:00pm 4.5 -1.1 1.5 81 1.2 W 20 32 11 17 - - 9.6
17/03:40pm 5.1 -2.0 1.4 77 1.5 W 28 56 15 30 - - 9.6
17/03:30pm 5.2 0.0 2.2 81 1.2 SSW 19 32 10 17 - - 9.6
17/03:00pm 4.6 -0.7 3.1 90 0.6 W 20 30 11 16 - - 9.6
17/02:32pm 3.8 -3.1 2.3 90 0.6 WSW 28 54 15 29 - - 9.2
17/02:30pm 4.2 -1.9 2.7 90 0.6 WSW 24 43 13 23 - - 9.0
17/02:00pm 5.2 0.5 3.2 87 0.8 SSW 17 24 9 13 - - 8.6
17/01:46pm 4.0 -4.6 2.4 89 0.7 SSW 37 56 20 30 - - 8.6
17/01:31pm 3.5 -3.5 1.7 88 0.7 WSW 28 54 15 29 - - 8.4
17/01:30pm 3.6 -3.0 1.8 88 0.7 WSW 26 54 14 29 - - 8.2
17/01:00pm 4.1 -0.2 3.2 94 0.4 W 15 22 8 12 - - 7.4
17/12:30pm 4.1 0.6 3.5 96 0.3 WNW 11 15 6 8 - - 6.8
17/12:00pm 3.3 -2.8 3.0 98 0.1 NW 24 30 13 16 - - 6.6
17/11:30am 3.0 -3.2 2.4 96 0.2 WNW 24 28 13 15 - - 5.8
17/11:00am 3.1 -1.8 2.2 94 0.4 WSW 17 24 9 13 - - 4.8
17/10:30am 3.0 -2.4 2.4 96 0.2 WNW 20 26 11 14 - - 4.2
17/10:00am 2.7 -4.7 1.8 94 0.4 W 30 41 16 22 - - 3.2
17/09:30am 4.5 -1.4 3.9 96 0.3 WNW 24 39 13 21 - - 0.6
17/09:00am 5.0 0.5 4.4 96 0.3 WNW 17 20 9 11 - - 8.0
17/08:30am 5.0 0.6 4.6 97 0.2 NW 17 20 9 11 - - 7.8
17/08:00am 4.9 -0.5 4.3 96 0.3 W 22 32 12 17 - - 7.6
17/07:30am 5.2 -1.6 4.9 98 0.1 NW 30 35 16 19 - - 7.0
17/07:00am 4.9 -1.2 4.6 98 0.1 NNW 26 35 14 19 - - 7.0
17/06:30am 5.0 2.5 4.7 98 0.1 W 7 9 4 5 - - 6.0
17/06:00am 5.1 2.3 5.0 99 0.0 NW 9 17 5 9 - - 5.2
17/05:30am 5.4 0.5 5.3 99 0.0 NNW 20 24 11 13 - - 4.0
17/05:00am 5.4 -0.2 5.3 99 0.0 NNW 24 32 13 17 - - 3.6
17/04:30am 5.3 -1.5 5.0 98 0.1 NNW 30 35 16 19 - - 3.6
17/04:00am 5.3 -1.9 5.0 98 0.1 NNW 32 35 17 19 - - 3.6
17/03:37am 5.8 -1.5 5.5 98 0.1 NNW 33 37 18 20 - - 3.6

Other Formats:

Comma delimited format used in spreadsheet applications
http://www.bom.gov.au/fwo/IDT60801/IDT60801.95958.axf

JavaScript Object Notation format (JSON) in row-major order
http://www.bom.gov.au/fwo/IDT60801/IDT60801.95958.json